Time;durP1;ratioP1;P1;durP2;ratioP2;P2;SDS_P1;SDS_P2;PMS_P1;PMS_P2;Temp;Humidity;BMP_temperature;BMP_pressure;BME280_temperature;BME280_humidity;BME280_pressure;Samples;Min_cycle;Max_cycle;Signal;HPM_P1;HPM_P2
2021/10/31 00:00:15;;;;;;;25.05;22.67;;;10.50;99.90;;;;;;2648071;28;20207;-69
2021/10/31 00:01:34;;;;;;;25.27;22.70;;;10.50;99.90;;;;;;2647956;28;20250;-69
2021/10/31 00:02:53;;;;;;;25.40;22.90;;;10.40;99.90;;;;;;2648972;28;20266;-69
2021/10/31 00:04:12;;;;;;;24.17;21.85;;;10.50;99.90;;;;;;2648371;28;20568;-69
2021/10/31 00:05:31;;;;;;;24.65;22.35;;;10.50;99.90;;;;;;2648938;28;20216;-69
2021/10/31 00:06:51;;;;;;;21.98;19.98;;;10.50;99.90;;;;;;2649089;28;20207;-69
2021/10/31 00:08:12;;;;;;;21.83;19.80;;;10.60;99.90;;;;;;2648875;28;20203;-69
2021/10/31 00:09:34;;;;;;;23.05;21.05;;;10.60;99.90;;;;;;2649099;28;20286;-69
2021/10/31 00:10:53;;;;;;;21.02;18.95;;;10.60;99.90;;;;;;2648828;28;20701;-69
2021/10/31 00:12:12;;;;;;;21.70;19.70;;;10.60;99.90;;;;;;2650950;28;20265;-68
2021/10/31 00:13:31;;;;;;;20.17;18.33;;;10.60;99.90;;;;;;2659031;28;20560;-68
2021/10/31 00:14:50;;;;;;;20.40;18.40;;;10.50;99.90;;;;;;2657886;28;20199;-68
2021/10/31 00:16:09;;;;;;;19.95;18.15;;;10.50;99.90;;;;;;2658477;28;20619;-68
2021/10/31 00:17:27;;;;;;;19.42;17.63;;;10.50;99.90;;;;;;2658062;28;20234;-68
2021/10/31 00:18:49;;;;;;;21.47;19.30;;;10.50;99.90;;;;;;2658825;28;20207;-69
2021/10/31 00:20:09;;;;;;;19.63;17.73;;;10.50;99.90;;;;;;2659184;28;20492;-69
2021/10/31 00:21:27;;;;;;;19.25;17.45;;;10.50;99.90;;;;;;2658571;28;20203;-68
2021/10/31 00:22:47;;;;;;;18.63;16.93;;;10.50;99.90;;;;;;2659090;28;20238;-69
2021/10/31 00:24:06;;;;;;;20.00;18.10;;;10.50;99.90;;;;;;2655141;28;20469;-69
2021/10/31 00:25:25;;;;;;;21.65;19.60;;;10.50;99.90;;;;;;2648686;28;20206;-69
2021/10/31 00:26:44;;;;;;;19.75;17.95;;;10.50;99.90;;;;;;2649246;28;20278;-69
2021/10/31 00:28:02;;;;;;;21.00;19.00;;;10.60;99.90;;;;;;2648782;28;20203;-69
2021/10/31 00:29:21;;;;;;;20.33;18.30;;;10.50;99.90;;;;;;2649443;28;20217;-69
2021/10/31 00:30:40;;;;;;;20.55;18.63;;;10.60;99.90;;;;;;2654491;28;20261;-69
2021/10/31 00:31:59;;;;;;;21.33;19.33;;;10.60;99.90;;;;;;2658802;28;20203;-68
2021/10/31 00:33:18;;;;;;;22.40;20.20;;;10.70;99.90;;;;;;2659415;28;20199;-69
2021/10/31 00:34:37;;;;;;;22.33;20.33;;;10.90;99.90;;;;;;2659147;28;20575;-69
2021/10/31 00:35:56;;;;;;;21.40;19.40;;;10.90;99.90;;;;;;2659342;28;20228;-69
2021/10/31 00:37:14;;;;;;;21.20;19.25;;;10.90;99.90;;;;;;2659002;28;20268;-69
2021/10/31 00:38:35;;;;;;;19.67;17.65;;;10.80;99.90;;;;;;2650439;28;20199;-69
2021/10/31 00:39:52;;;;;;;18.60;16.90;;;10.80;99.90;;;;;;2649194;28;20261;-69
2021/10/31 00:41:11;;;;;;;19.33;17.53;;;10.80;99.90;;;;;;2649039;28;20677;-69
2021/10/31 00:42:30;;;;;;;18.50;16.77;;;10.80;99.90;;;;;;2648770;28;20788;-69
2021/10/31 00:43:48;;;;;;;19.73;17.88;;;10.80;99.90;;;;;;2652967;28;20256;-69
2021/10/31 00:45:08;;;;;;;18.65;16.90;;;10.80;99.90;;;;;;2658446;28;20207;-69
2021/10/31 00:46:26;;;;;;;18.30;16.70;;;10.90;99.90;;;;;;2655931;28;20234;-69
2021/10/31 00:47:45;;;;;;;19.13;17.25;;;10.90;99.90;;;;;;2649857;28;20235;-69
2021/10/31 00:49:04;;;;;;;20.25;18.30;;;10.90;99.90;;;;;;2658795;28;20213;-69
2021/10/31 00:50:22;;;;;;;20.15;18.17;;;10.80;99.90;;;;;;2659056;28;20276;-69
2021/10/31 00:51:41;;;;;;;19.85;18.10;;;10.90;99.90;;;;;;2659417;28;20203;-69
2021/10/31 00:53:00;;;;;;;19.80;18.00;;;11.00;99.90;;;;;;2658875;28;20219;-69
2021/10/31 00:54:20;;;;;;;20.00;18.20;;;11.00;99.90;;;;;;2658238;28;20214;-69
2021/10/31 00:55:39;;;;;;;19.15;17.20;;;10.90;99.90;;;;;;2659291;28;20206;-69
2021/10/31 00:56:58;;;;;;;20.52;18.67;;;10.90;99.90;;;;;;2658828;28;20224;-69
2021/10/31 00:58:18;;;;;;;21.50;19.40;;;10.90;99.90;;;;;;2652751;28;20282;-69
2021/10/31 00:59:37;;;;;;;22.40;20.08;;;10.80;99.90;;;;;;2648528;28;20207;-69
2021/10/31 01:00:56;;;;;;;19.48;17.58;;;10.80;99.90;;;;;;2648361;28;20221;-69
2021/10/31 01:02:16;;;;;;;21.08;19.25;;;10.80;99.90;;;;;;2648181;28;20208;-69
2021/10/31 01:03:35;;;;;;;20.42;18.55;;;10.70;99.90;;;;;;2652660;28;20199;-69
2021/10/31 01:04:57;;;;;;;20.48;18.58;;;10.70;99.90;;;;;;2658285;28;20211;-69
2021/10/31 01:06:42;;;;;;;19.75;17.77;;;10.70;99.90;;;;;;2658700;28;20318;-69
2021/10/31 01:08:21;;;;;;;18.50;16.70;;;10.50;99.90;;;;;;2655615;28;20203;-69
2021/10/31 01:09:55;;;;;;;19.52;17.70;;;10.50;99.90;;;;;;2653410;28;20248;-69
2021/10/31 01:11:27;;;;;;;18.52;16.73;;;10.50;99.90;;;;;;2648420;28;20210;-69
2021/10/31 01:13:06;;;;;;;20.48;18.50;;;10.40;99.90;;;;;;2648867;28;20255;-69
2021/10/31 01:14:41;;;;;;;19.45;17.42;;;10.40;99.90;;;;;;2648376;28;20192;-69
2021/10/31 01:16:13;;;;;;;20.55;18.55;;;10.30;99.90;;;;;;2648505;28;20212;-70
2021/10/31 01:17:47;;;;;;;20.17;18.17;;;10.30;99.90;;;;;;2648253;28;20997;-69
2021/10/31 01:19:41;;;;;;;20.65;18.55;;;10.30;99.90;;;;;;2648499;28;20258;-69
2021/10/31 01:21:13;;;;;;;18.65;16.90;;;10.20;99.90;;;;;;2648851;28;20207;-69
2021/10/31 01:22:47;;;;;;;20.60;18.70;;;10.20;99.90;;;;;;2648337;28;20274;-69
2021/10/31 01:24:25;;;;;;;22.02;19.90;;;10.20;99.90;;;;;;2647695;28;20740;-69
2021/10/31 01:26:00;;;;;;;21.15;19.05;;;10.20;99.90;;;;;;2616428;29;20774;-69
2021/10/31 01:27:30;;;;;;;20.73;18.80;;;10.10;99.90;;;;;;2648405;28;20204;-69
2021/10/31 01:29:25;;;;;;;20.83;18.80;;;10.10;99.90;;;;;;2647820;28;20295;-69
2021/10/31 01:30:58;;;;;;;22.15;19.98;;;10.10;99.90;;;;;;2636265;28;21044;-69
2021/10/31 01:32:32;;;;;;;21.08;19.08;;;10.00;99.90;;;;;;2647835;28;20724;-69
2021/10/31 01:34:00;;;;;;;20.30;18.38;;;10.00;99.90;;;;;;2647135;28;20217;-69
2021/10/31 01:35:31;;;;;;;20.95;18.75;;;10.00;99.90;;;;;;2648594;28;20243;-69
2021/10/31 01:37:00;;;;;;;21.00;18.90;;;10.00;99.90;;;;;;2648034;28;20204;-69
2021/10/31 01:38:30;;;;;;;20.45;18.55;;;9.90;99.90;;;;;;2653022;28;20696;-69
2021/10/31 01:39:57;;;;;;;22.35;19.83;;;9.80;99.90;;;;;;2648174;28;20227;-69
2021/10/31 01:41:26;;;;;;;21.95;19.95;;;9.80;99.90;;;;;;2648158;28;20567;-69
2021/10/31 01:42:57;;;;;;;19.90;18.10;;;9.80;99.90;;;;;;2647981;28;20577;-69
2021/10/31 01:44:27;;;;;;;19.75;17.75;;;9.70;99.90;;;;;;2647264;28;20248;-69
2021/10/31 01:45:53;;;;;;;20.58;18.63;;;9.70;99.90;;;;;;2647980;28;20188;-69
2021/10/31 01:47:23;;;;;;;20.83;18.92;;;9.60;99.90;;;;;;2648076;28;20195;-69
2021/10/31 01:48:55;;;;;;;18.23;16.50;;;9.60;99.90;;;;;;2648316;28;20207;-69
2021/10/31 01:50:27;;;;;;;18.50;16.80;;;9.60;99.90;;;;;;2655419;28;20773;-69
2021/10/31 01:51:51;;;;;;;19.90;17.90;;;9.50;99.90;;;;;;2658471;28;20203;-69
2021/10/31 01:53:14;;;;;;;20.73;18.75;;;9.50;99.90;;;;;;2658295;28;20211;-69
2021/10/31 01:54:38;;;;;;;20.98;18.92;;;9.50;99.90;;;;;;2652982;28;20223;-69
2021/10/31 01:56:03;;;;;;;20.23;18.33;;;9.50;99.90;;;;;;2648216;28;20192;-69
2021/10/31 01:57:25;;;;;;;19.98;18.08;;;9.40;99.90;;;;;;2647827;28;20207;-70
2021/10/31 01:58:46;;;;;;;21.17;19.27;;;9.40;99.90;;;;;;2648215;28;20211;-70
2021/10/31 02:00:08;;;;;;;20.42;18.45;;;9.40;99.90;;;;;;2647895;28;20588;-69
2021/10/31 02:01:29;;;;;;;22.02;19.92;;;9.40;99.90;;;;;;2647988;28;20211;-69
2021/10/31 02:02:48;;;;;;;21.33;19.25;;;9.50;99.90;;;;;;2648005;28;20214;-69
2021/10/31 02:04:09;;;;;;;21.52;19.60;;;9.40;99.90;;;;;;2647233;28;20657;-69
2021/10/31 02:05:30;;;;;;;21.10;19.08;;;9.30;99.90;;;;;;2653851;28;20195;-69
2021/10/31 02:06:52;;;;;;;20.35;18.45;;;9.30;99.90;;;;;;2658379;28;20245;-69
2021/10/31 02:08:10;;;;;;;22.35;20.05;;;9.30;99.90;;;;;;2658275;28;20207;-69
2021/10/31 02:09:32;;;;;;;22.30;20.17;;;9.30;99.90;;;;;;2657864;28;20217;-69
2021/10/31 02:10:52;;;;;;;21.48;19.38;;;9.30;99.90;;;;;;2658534;28;20211;-69
2021/10/31 02:12:16;;;;;;;20.90;18.90;;;9.30;99.90;;;;;;2649191;28;20346;-69
2021/10/31 02:13:38;;;;;;;20.05;18.10;;;9.30;99.90;;;;;;2648084;28;20211;-69
2021/10/31 02:14:57;;;;;;;19.98;17.95;;;9.30;99.90;;;;;;2648206;28;20277;-69
2021/10/31 02:16:18;;;;;;;20.05;18.05;;;9.30;99.90;;;;;;2658384;28;20207;-69
2021/10/31 02:17:37;;;;;;;19.88;17.83;;;9.40;99.90;;;;;;2650762;28;20239;-69
2021/10/31 02:18:56;;;;;;;20.60;18.60;;;9.50;99.90;;;;;;2647978;28;20207;-69
2021/10/31 02:20:16;;;;;;;19.30;17.50;;;9.50;99.90;;;;;;2647706;28;20689;-70
2021/10/31 02:21:37;;;;;;;18.92;17.13;;;9.70;99.90;;;;;;2647870;28;20332;-69
2021/10/31 02:22:58;;;;;;;18.27;16.40;;;9.70;99.90;;;;;;2648128;28;20242;-69
2021/10/31 02:24:16;;;;;;;17.50;15.90;;;9.70;99.90;;;;;;2647347;28;20208;-69
2021/10/31 02:25:35;;;;;;;17.52;15.90;;;9.70;99.90;;;;;;2649531;28;20295;-69
2021/10/31 02:26:53;;;;;;;18.63;16.83;;;9.70;99.90;;;;;;2658317;28;20201;-69
2021/10/31 02:28:12;;;;;;;18.83;17.05;;;9.70;99.90;;;;;;2652164;28;20254;-69
2021/10/31 02:29:30;;;;;;;19.30;17.30;;;9.70;99.90;;;;;;2647789;28;20214;-69
2021/10/31 02:30:50;;;;;;;20.07;18.07;;;9.70;99.90;;;;;;2648113;28;20306;-69
2021/10/31 02:32:08;;;;;;;18.70;16.95;;;9.70;99.90;;;;;;2647520;28;20454;-69
2021/10/31 02:33:27;;;;;;;19.63;17.73;;;9.80;99.90;;;;;;2647752;28;20691;-69
2021/10/31 02:34:45;;;;;;;16.98;15.20;;;9.80;99.90;;;;;;2647494;28;20446;-69
2021/10/31 02:36:04;;;;;;;19.38;17.45;;;9.80;99.90;;;;;;2658089;28;20903;-68
2021/10/31 02:37:24;;;;;;;17.30;15.65;;;9.80;99.90;;;;;;2658306;28;20693;-69
2021/10/31 02:38:45;;;;;;;19.92;18.02;;;9.90;99.90;;;;;;2658149;28;20238;-69
2021/10/31 02:40:04;;;;;;;19.05;17.23;;;9.90;99.90;;;;;;2658181;28;20199;-69
2021/10/31 02:41:23;;;;;;;17.02;15.25;;;9.90;99.90;;;;;;2658143;28;20214;-69
2021/10/31 02:42:42;;;;;;;18.65;16.92;;;9.90;99.90;;;;;;2658315;28;20537;-69
2021/10/31 02:44:00;;;;;;;17.90;16.30;;;10.00;99.90;;;;;;2658194;28;20203;-69
2021/10/31 02:45:19;;;;;;;18.77;16.95;;;10.10;99.90;;;;;;2657443;28;20204;-69
2021/10/31 02:46:38;;;;;;;19.48;17.52;;;10.10;99.90;;;;;;2660547;28;20199;-69
2021/10/31 02:47:59;;;;;;;18.42;16.73;;;10.10;99.90;;;;;;2660215;28;20210;-69
2021/10/31 02:49:19;;;;;;;16.85;15.25;;;10.10;99.90;;;;;;2660121;28;20207;-69
2021/10/31 02:50:41;;;;;;;18.50;16.77;;;10.10;99.90;;;;;;2660548;28;20199;-69
2021/10/31 02:52:05;;;;;;;21.15;19.13;;;10.00;99.90;;;;;;2660265;28;21030;-69
2021/10/31 02:53:29;;;;;;;18.05;16.35;;;10.00;99.90;;;;;;2660454;28;20270;-69
2021/10/31 02:54:57;;;;;;;17.77;16.13;;;9.90;99.90;;;;;;2659407;28;20257;-69
2021/10/31 02:56:25;;;;;;;18.70;16.80;;;9.90;99.90;;;;;;2657264;28;20711;-69
2021/10/31 02:57:49;;;;;;;18.08;16.38;;;9.80;99.90;;;;;;2659497;28;20199;-69
2021/10/31 02:59:15;;;;;;;19.13;17.33;;;9.80;99.90;;;;;;2660207;28;20234;-69
2021/10/31 03:00:37;;;;;;;18.98;17.17;;;9.90;99.90;;;;;;2660211;28;20211;-69
2021/10/31 03:01:59;;;;;;;19.17;17.40;;;9.90;99.90;;;;;;2660281;28;20297;-69
2021/10/31 03:03:21;;;;;;;19.92;18.02;;;9.90;99.90;;;;;;2650028;28;20208;-69
2021/10/31 03:04:39;;;;;;;20.05;18.15;;;9.90;99.90;;;;;;2649691;28;20203;-69
2021/10/31 03:05:59;;;;;;;20.08;17.90;;;9.90;99.90;;;;;;2653203;28;20556;-69
2021/10/31 03:07:18;;;;;;;20.25;18.25;;;9.90;99.90;;;;;;2652709;28;20206;-70
2021/10/31 03:08:37;;;;;;;21.52;19.48;;;9.90;99.90;;;;;;2654767;28;20229;-69
2021/10/31 03:09:57;;;;;;;18.23;16.60;;;9.90;99.90;;;;;;2649494;28;20207;-69
2021/10/31 03:11:15;;;;;;;19.42;17.52;;;9.90;99.90;;;;;;2649695;28;20204;-69
2021/10/31 03:12:34;;;;;;;19.13;17.23;;;9.90;99.90;;;;;;2649504;28;20767;-69
2021/10/31 03:13:52;;;;;;;19.63;17.65;;;9.80;99.90;;;;;;2649416;28;20215;-70
2021/10/31 03:15:11;;;;;;;19.80;17.90;;;9.70;99.90;;;;;;2649255;28;20297;-69
2021/10/31 03:16:29;;;;;;;18.25;16.42;;;9.70;99.90;;;;;;2649884;28;20455;-69
2021/10/31 03:17:49;;;;;;;19.20;17.38;;;9.60;99.90;;;;;;2658141;28;20747;-70
2021/10/31 03:19:07;;;;;;;19.02;17.15;;;9.60;99.90;;;;;;2658784;28;20199;-69
2021/10/31 03:20:26;;;;;;;17.83;16.00;;;9.60;99.90;;;;;;2649332;28;20370;-70
2021/10/31 03:21:44;;;;;;;17.67;15.98;;;9.60;99.90;;;;;;2649637;28;20506;-69
2021/10/31 03:23:03;;;;;;;18.88;17.10;;;9.70;99.90;;;;;;2649707;28;20230;-69
2021/10/31 03:24:21;;;;;;;15.38;14.07;;;9.80;99.90;;;;;;2648991;28;20211;-69
2021/10/31 03:25:41;;;;;;;17.42;15.27;;;9.90;99.90;;;;;;2655478;28;20210;-69
2021/10/31 03:27:00;;;;;;;17.70;16.10;;;9.90;99.90;;;;;;2660073;28;20704;-69
2021/10/31 03:28:20;;;;;;;17.02;15.43;;;9.90;99.90;;;;;;2659777;28;20630;-69
2021/10/31 03:29:39;;;;;;;17.15;15.50;;;10.00;99.90;;;;;;2659836;28;20765;-69
2021/10/31 03:30:58;;;;;;;17.75;16.08;;;10.10;99.90;;;;;;2659907;28;20241;-69
2021/10/31 03:32:16;;;;;;;17.83;16.02;;;10.00;99.90;;;;;;2658890;28;20233;-69
2021/10/31 03:33:35;;;;;;;18.33;16.55;;;10.00;99.90;;;;;;2659561;28;20202;-69
2021/10/31 03:34:53;;;;;;;17.05;15.55;;;9.90;99.90;;;;;;2658216;28;20257;-69
2021/10/31 03:36:12;;;;;;;17.67;15.88;;;9.80;99.90;;;;;;2650410;28;20204;-69
2021/10/31 03:37:30;;;;;;;17.55;15.95;;;9.70;99.90;;;;;;2659841;28;20648;-69
2021/10/31 03:38:49;;;;;;;17.75;16.05;;;9.60;99.90;;;;;;2659825;28;20230;-69
2021/10/31 03:40:08;;;;;;;17.08;15.48;;;9.60;99.90;;;;;;2659953;28;20198;-69
2021/10/31 03:41:29;;;;;;;17.23;15.68;;;9.50;99.90;;;;;;2659996;28;20207;-69
2021/10/31 03:42:46;;;;;;;16.90;15.02;;;9.50;99.90;;;;;;2659958;28;20652;-69
2021/10/31 03:44:06;;;;;;;17.17;15.47;;;9.50;99.90;;;;;;2658674;28;20210;-69
2021/10/31 03:45:25;;;;;;;19.20;16.88;;;9.60;99.90;;;;;;2655105;28;20447;-69
2021/10/31 03:46:45;;;;;;;16.85;15.10;;;9.70;99.90;;;;;;2649587;28;20207;-69
2021/10/31 03:48:04;;;;;;;17.75;16.08;;;9.80;99.90;;;;;;2649615;28;20203;-69
2021/10/31 03:49:23;;;;;;;16.95;15.35;;;9.80;99.90;;;;;;2659761;28;20222;-69
2021/10/31 03:50:41;;;;;;;17.73;16.02;;;9.70;99.90;;;;;;2659721;28;20272;-69
2021/10/31 03:51:59;;;;;;;16.63;14.93;;;9.80;99.90;;;;;;2659804;28;20261;-69
2021/10/31 03:53:18;;;;;;;18.38;16.67;;;9.80;99.90;;;;;;2657265;28;20513;-68
2021/10/31 03:54:38;;;;;;;18.05;16.35;;;9.80;99.90;;;;;;2648315;28;20215;-69
2021/10/31 03:55:57;;;;;;;19.65;17.83;;;9.80;99.90;;;;;;2648496;28;20282;-69
2021/10/31 03:57:16;;;;;;;19.90;18.02;;;9.70;99.90;;;;;;2648645;28;20677;-69
2021/10/31 03:58:35;;;;;;;19.75;17.85;;;9.70;99.90;;;;;;2649412;28;20230;-69
2021/10/31 03:59:53;;;;;;;20.05;18.15;;;9.70;99.90;;;;;;2649354;28;20215;-69
2021/10/31 04:01:12;;;;;;;18.63;16.73;;;9.70;99.90;;;;;;2649914;28;20347;-69
2021/10/31 04:02:31;;;;;;;19.30;17.17;;;9.80;99.90;;;;;;2658991;28;20438;-69
2021/10/31 04:03:50;;;;;;;18.48;16.75;;;9.70;99.90;;;;;;2658887;28;20222;-69
2021/10/31 04:05:09;;;;;;;19.55;17.85;;;9.70;99.90;;;;;;2658055;28;20254;-69
2021/10/31 04:06:28;;;;;;;19.05;17.25;;;9.70;99.90;;;;;;2659247;28;20194;-69
2021/10/31 04:07:48;;;;;;;18.75;16.92;;;9.70;99.90;;;;;;2659363;28;20217;-69
2021/10/31 04:09:06;;;;;;;19.10;16.95;;;9.70;99.90;;;;;;2659493;28;20207;-69
2021/10/31 04:10:24;;;;;;;19.13;17.43;;;9.60;99.90;;;;;;2656430;28;20285;-69
2021/10/31 04:11:43;;;;;;;20.52;18.63;;;9.60;99.90;;;;;;2648925;28;20783;-69
2021/10/31 04:13:03;;;;;;;20.20;18.20;;;9.60;99.90;;;;;;2648844;28;20329;-69
2021/10/31 04:14:21;;;;;;;18.75;17.05;;;9.60;99.90;;;;;;2648527;28;20661;-69
2021/10/31 04:15:41;;;;;;;18.20;16.30;;;9.50;99.90;;;;;;2653902;28;20207;-69
2021/10/31 04:16:59;;;;;;;19.17;17.42;;;9.60;99.90;;;;;;2659020;28;20912;-69
2021/10/31 04:18:18;;;;;;;20.23;18.43;;;9.60;99.90;;;;;;2659265;28;20209;-69
2021/10/31 04:19:37;;;;;;;19.33;17.42;;;9.60;99.90;;;;;;2659490;28;20452;-69
2021/10/31 04:20:56;;;;;;;19.10;17.30;;;9.70;99.90;;;;;;2659406;28;20211;-69
2021/10/31 04:22:15;;;;;;;19.83;17.92;;;9.80;99.90;;;;;;2659059;28;20599;-69
2021/10/31 04:23:33;;;;;;;18.40;16.60;;;9.80;99.90;;;;;;2659387;28;20203;-69
2021/10/31 04:24:52;;;;;;;17.97;16.30;;;9.70;99.90;;;;;;2658184;28;20207;-69
2021/10/31 04:26:11;;;;;;;19.48;17.58;;;9.60;99.90;;;;;;2650483;28;20485;-69
2021/10/31 04:27:29;;;;;;;19.55;17.75;;;9.50;99.90;;;;;;2652436;28;20628;-69
2021/10/31 04:28:52;;;;;;;18.75;16.95;;;9.30;99.90;;;;;;2659374;28;20195;-69
2021/10/31 04:30:12;;;;;;;20.30;18.40;;;9.20;99.90;;;;;;2658222;28;20273;-68
2021/10/31 04:31:31;;;;;;;21.85;19.73;;;9.10;99.90;;;;;;2659002;28;20250;-69
2021/10/31 04:32:49;;;;;;;20.65;18.60;;;9.00;99.90;;;;;;2658618;28;20195;-69
2021/10/31 04:34:08;;;;;;;20.57;18.67;;;9.00;99.90;;;;;;2658880;28;20207;-69
2021/10/31 04:35:27;;;;;;;22.10;19.77;;;8.90;99.90;;;;;;2658465;28;20620;-69
2021/10/31 04:36:46;;;;;;;20.73;18.88;;;8.80;99.90;;;;;;2659535;28;20206;-69
2021/10/31 04:38:10;;;;;;;21.77;19.77;;;8.70;99.90;;;;;;2659381;28;20626;-69
2021/10/31 04:39:29;;;;;;;22.40;20.23;;;8.70;99.90;;;;;;2659370;28;20306;-69
2021/10/31 04:40:48;;;;;;;24.90;22.60;;;8.90;99.90;;;;;;2659110;28;20218;-69
2021/10/31 04:42:07;;;;;;;23.77;21.52;;;8.90;99.90;;;;;;2659073;28;20221;-69
2021/10/31 04:43:27;;;;;;;23.17;21.02;;;8.90;99.90;;;;;;2659255;28;20203;-69
2021/10/31 04:44:46;;;;;;;29.88;24.00;;;8.80;99.90;;;;;;2652534;28;20696;-69
2021/10/31 04:46:05;;;;;;;23.60;21.27;;;8.80;99.90;;;;;;2656033;28;20229;-69
2021/10/31 04:47:24;;;;;;;24.73;22.33;;;8.70;99.90;;;;;;2659171;28;20211;-69
2021/10/31 04:48:43;;;;;;;24.77;22.52;;;8.80;99.90;;;;;;2658844;28;20233;-69
2021/10/31 04:50:00;;;;;;;21.88;19.77;;;8.70;99.90;;;;;;2659319;28;20653;-68
2021/10/31 04:51:19;;;;;;;23.63;21.33;;;8.80;99.90;;;;;;2659184;28;20230;-68
2021/10/31 04:52:42;;;;;;;23.27;21.10;;;8.90;99.90;;;;;;2659045;28;20453;-68
2021/10/31 04:54:01;;;;;;;24.70;22.20;;;9.00;99.90;;;;;;2659007;28;20916;-69
2021/10/31 04:55:19;;;;;;;24.55;22.05;;;8.90;99.90;;;;;;2657475;28;20207;-68
2021/10/31 04:56:38;;;;;;;22.35;19.88;;;8.90;99.90;;;;;;2648967;28;20304;-68
2021/10/31 04:57:57;;;;;;;22.52;20.13;;;8.90;99.90;;;;;;2648595;28;20262;-68
2021/10/31 04:59:16;;;;;;;22.70;20.38;;;8.90;99.90;;;;;;2648684;28;20237;-69
2021/10/31 05:00:36;;;;;;;23.02;20.75;;;8.80;99.90;;;;;;2651759;28;20213;-68
2021/10/31 05:01:55;;;;;;;23.83;21.63;;;8.80;99.90;;;;;;2658147;28;20205;-68
2021/10/31 05:03:14;;;;;;;23.33;21.05;;;8.80;99.90;;;;;;2658782;28;20211;-69
2021/10/31 05:04:32;;;;;;;22.90;20.70;;;8.70;99.90;;;;;;2658276;28;20753;-69
2021/10/31 05:05:51;;;;;;;24.70;22.50;;;8.80;99.90;;;;;;2653967;28;20338;-69
2021/10/31 05:07:09;;;;;;;26.92;24.30;;;8.80;99.90;;;;;;2648285;28;20212;-69
2021/10/31 05:08:28;;;;;;;27.38;24.85;;;8.90;99.90;;;;;;2657883;28;20207;-68
2021/10/31 05:09:47;;;;;;;25.15;22.83;;;8.90;99.90;;;;;;2658825;28;20740;-69
2021/10/31 05:11:07;;;;;;;25.65;23.15;;;8.90;99.90;;;;;;2659112;28;20221;-69
2021/10/31 05:12:27;;;;;;;24.55;22.10;;;9.00;99.90;;;;;;2659009;28;20207;-69
2021/10/31 05:13:45;;;;;;;23.55;21.33;;;9.00;99.90;;;;;;2658939;28;20210;-69
2021/10/31 05:15:04;;;;;;;25.60;23.05;;;9.00;99.90;;;;;;2658685;28;20203;-69
2021/10/31 05:16:24;;;;;;;24.50;22.20;;;9.00;99.90;;;;;;2658251;28;20264;-69
2021/10/31 05:17:43;;;;;;;25.20;22.60;;;9.00;99.90;;;;;;2658950;28;20203;-69
2021/10/31 05:19:03;;;;;;;23.08;20.30;;;9.00;99.90;;;;;;2650558;28;20239;-69
2021/10/31 05:20:22;;;;;;;20.90;18.90;;;9.20;99.90;;;;;;2648176;28;20269;-70
2021/10/31 05:21:40;;;;;;;23.50;21.30;;;9.30;99.90;;;;;;2648559;28;20204;-69
2021/10/31 05:22:59;;;;;;;20.98;18.92;;;9.30;99.90;;;;;;2648606;28;20211;-68
2021/10/31 05:24:18;;;;;;;23.83;21.58;;;9.30;99.90;;;;;;2648298;28;20203;-68
2021/10/31 05:25:37;;;;;;;22.60;20.40;;;9.20;99.90;;;;;;2648345;28;20215;-68
2021/10/31 05:26:56;;;;;;;22.05;19.88;;;9.10;99.90;;;;;;2648422;28;20212;-68
2021/10/31 05:28:15;;;;;;;22.73;20.42;;;9.00;99.90;;;;;;2648251;28;20211;-68
2021/10/31 05:29:34;;;;;;;21.83;19.63;;;8.90;99.90;;;;;;2648438;28;20200;-69
2021/10/31 05:30:52;;;;;;;24.48;22.00;;;8.80;99.90;;;;;;2648435;28;20286;-68
2021/10/31 05:32:13;;;;;;;24.92;22.42;;;8.80;99.90;;;;;;2647729;28;20704;-68
2021/10/31 05:33:32;;;;;;;23.33;21.13;;;8.90;99.90;;;;;;2647967;28;20211;-68
2021/10/31 05:34:51;;;;;;;24.10;21.60;;;8.90;99.90;;;;;;2647958;28;20214;-68
2021/10/31 05:36:09;;;;;;;26.85;24.17;;;8.80;99.90;;;;;;2651934;28;20208;-68
2021/10/31 05:37:31;;;;;;;24.10;21.67;;;8.70;99.90;;;;;;2658446;28;20194;-68
2021/10/31 05:38:53;;;;;;;23.95;21.50;;;8.70;99.90;;;;;;2655152;28;20262;-68
2021/10/31 05:40:12;;;;;;;24.13;21.73;;;8.80;99.90;;;;;;2648069;28;20207;-68
2021/10/31 05:41:31;;;;;;;23.27;21.08;;;8.70;99.90;;;;;;2648023;28;20619;-69
2021/10/31 05:42:50;;;;;;;23.77;21.58;;;8.70;99.90;;;;;;2647964;28;20665;-68
2021/10/31 05:44:09;;;;;;;24.67;22.17;;;8.60;99.90;;;;;;2647893;28;20265;-69
2021/10/31 05:45:29;;;;;;;24.98;22.48;;;8.70;99.90;;;;;;2648050;28;20901;-68
2021/10/31 05:46:48;;;;;;;23.10;20.88;;;8.70;99.90;;;;;;2649056;28;20207;-68
2021/10/31 05:48:07;;;;;;;24.35;21.77;;;8.80;99.90;;;;;;2658805;28;20253;-68
2021/10/31 05:49:26;;;;;;;25.02;22.48;;;8.80;99.90;;;;;;2658527;28;20211;-69
2021/10/31 05:50:45;;;;;;;24.42;22.08;;;8.70;99.90;;;;;;2658376;28;20210;-68
2021/10/31 05:52:05;;;;;;;24.17;21.90;;;8.70;99.90;;;;;;2657860;28;20211;-68
2021/10/31 05:53:24;;;;;;;23.70;21.48;;;8.70;99.90;;;;;;2648103;28;20213;-68
2021/10/31 05:54:43;;;;;;;25.27;22.75;;;8.70;99.90;;;;;;2647885;28;20274;-69
2021/10/31 05:56:04;;;;;;;25.27;22.25;;;8.70;99.90;;;;;;2652352;28;20247;-68
2021/10/31 05:57:22;;;;;;;24.58;22.02;;;8.70;99.90;;;;;;2658373;28;20235;-68
2021/10/31 05:58:41;;;;;;;24.97;22.43;;;8.70;99.90;;;;;;2658656;28;20213;-69
2021/10/31 06:00:03;;;;;;;23.55;21.35;;;8.80;99.90;;;;;;2657874;28;20520;-68
2021/10/31 06:01:22;;;;;;;23.60;21.17;;;8.80;99.90;;;;;;2647779;28;20266;-68
2021/10/31 06:02:41;;;;;;;23.67;21.58;;;8.80;99.90;;;;;;2647940;28;20199;-67
2021/10/31 06:04:02;;;;;;;22.70;20.65;;;8.80;99.90;;;;;;2647938;28;20227;-67
2021/10/31 06:05:21;;;;;;;24.05;21.65;;;8.80;99.90;;;;;;2647727;28;20216;-67
2021/10/31 06:06:40;;;;;;;24.98;22.65;;;8.80;99.90;;;;;;2648091;28;20211;-67
2021/10/31 06:07:59;;;;;;;25.17;22.77;;;8.70;99.90;;;;;;2648494;28;20208;-67
2021/10/31 06:09:16;;;;;;;24.55;22.00;;;8.70;99.90;;;;;;2649832;28;20823;-67
2021/10/31 06:10:35;;;;;;;24.97;22.50;;;8.70;99.90;;;;;;2658595;28;20242;-67
2021/10/31 06:11:54;;;;;;;23.95;21.73;;;8.70;99.90;;;;;;2658422;28;20488;-67
2021/10/31 06:13:12;;;;;;;24.00;21.60;;;8.70;99.90;;;;;;2658389;28;20195;-67
2021/10/31 06:14:31;;;;;;;23.50;21.10;;;8.60;99.90;;;;;;2657583;28;20280;-67
2021/10/31 06:15:49;;;;;;;25.08;22.25;;;8.60;99.90;;;;;;2657274;28;20461;-67
2021/10/31 06:17:08;;;;;;;23.92;21.42;;;8.60;99.90;;;;;;2661878;28;20281;-68
2021/10/31 06:18:26;;;;;;;24.52;21.92;;;8.70;99.90;;;;;;2668903;28;20275;-67
2021/10/31 06:19:47;;;;;;;25.77;23.07;;;8.70;99.90;;;;;;2668164;28;20710;-67
2021/10/31 06:21:05;;;;;;;24.20;21.90;;;8.60;99.90;;;;;;2669016;28;20460;-67
2021/10/31 06:22:24;;;;;;;24.55;22.20;;;8.60;99.90;;;;;;2668890;28;20829;-67
2021/10/31 06:23:43;;;;;;;24.80;22.48;;;8.60;99.90;;;;;;2669047;28;20660;-67
2021/10/31 06:25:01;;;;;;;24.25;21.75;;;8.60;99.90;;;;;;2668561;28;20210;-67
2021/10/31 06:26:20;;;;;;;24.70;22.30;;;8.60;99.90;;;;;;2659691;28;20610;-67
2021/10/31 06:27:39;;;;;;;24.85;22.45;;;8.60;99.90;;;;;;2658706;28;20256;-67
2021/10/31 06:28:57;;;;;;;24.38;22.08;;;8.60;99.90;;;;;;2658587;28;20202;-68
2021/10/31 06:30:16;;;;;;;26.27;23.67;;;8.70;99.90;;;;;;2657404;28;20309;-68
2021/10/31 06:31:38;;;;;;;23.48;21.27;;;8.70;99.90;;;;;;2657401;28;20814;-68
2021/10/31 06:32:56;;;;;;;22.95;20.75;;;8.70;99.90;;;;;;2658131;28;20199;-67
2021/10/31 06:34:21;;;;;;;22.30;20.20;;;8.80;99.90;;;;;;2657825;28;20591;-68
2021/10/31 06:35:41;;;;;;;23.63;21.38;;;8.80;99.90;;;;;;2657988;28;20461;-68
2021/10/31 06:36:59;;;;;;;24.77;22.40;;;8.90;99.90;;;;;;2647968;28;20211;-68
2021/10/31 06:38:18;;;;;;;22.42;20.17;;;8.90;99.90;;;;;;2647861;28;20696;-67
2021/10/31 06:39:36;;;;;;;26.48;23.85;;;9.00;99.90;;;;;;2647597;28;20227;-67
2021/10/31 06:40:55;;;;;;;27.60;24.90;;;9.00;99.90;;;;;;2647979;28;20262;-68
2021/10/31 06:42:14;;;;;;;23.23;20.92;;;9.10;99.90;;;;;;2647911;28;20266;-67
2021/10/31 06:43:33;;;;;;;24.60;22.10;;;9.20;99.90;;;;;;2647816;28;20277;-67
2021/10/31 06:44:52;;;;;;;23.70;21.42;;;9.30;99.90;;;;;;2647884;28;20723;-67
2021/10/31 06:46:10;;;;;;;23.38;21.17;;;9.30;99.90;;;;;;2647786;28;20265;-67
2021/10/31 06:47:29;;;;;;;23.75;21.55;;;9.30;99.90;;;;;;2654246;28;20219;-66
2021/10/31 06:48:48;;;;;;;21.95;19.85;;;9.40;99.90;;;;;;2659015;28;20607;-68
2021/10/31 06:50:08;;;;;;;22.92;20.73;;;9.50;99.90;;;;;;2658778;28;20269;-69
2021/10/31 06:51:27;;;;;;;22.70;20.40;;;9.50;99.90;;;;;;2658785;28;20214;-70
2021/10/31 06:52:50;;;;;;;21.20;19.02;;;9.50;99.90;;;;;;2658657;28;20264;-70